Time;durP1;ratioP1;P1;durP2;ratioP2;P2;SDS_P1;SDS_P2;PMS_P1;PMS_P2;Temp;Humidity;BMP_temperature;BMP_pressure;BME280_temperature;BME280_humidity;BME280_pressure;Samples;Min_cycle;Max_cycle;Signal;HPM_P1;HPM_P2
2021/04/24 00:00:42;;;;;;;4.47;3.08;;;17.50;55.70;;;;;;4129566;28;20464;-59
2021/04/24 00:02:45;;;;;;;4.65;3.40;;;17.50;55.60;;;;;;4134283;28;20410;-61
2021/04/24 00:04:47;;;;;;;3.88;2.83;;;17.40;55.60;;;;;;4145730;28;20030;-58
2021/04/24 00:06:49;;;;;;;4.68;3.05;;;17.40;55.60;;;;;;4132744;28;20140;-57
2021/04/24 00:08:51;;;;;;;5.07;2.80;;;17.40;55.50;;;;;;4142762;28;20128;-59
2021/04/24 00:10:54;;;;;;;4.47;3.15;;;17.40;55.40;;;;;;4146534;28;21331;-60
2021/04/24 00:12:57;;;;;;;3.53;2.58;;;17.40;55.50;;;;;;4143169;28;20671;-58
2021/04/24 00:14:59;;;;;;;4.70;2.80;;;17.40;55.70;;;;;;4144644;28;20534;-60
2021/04/24 00:17:01;;;;;;;5.90;2.90;;;17.40;56.20;;;;;;4146315;28;20055;-61
2021/04/24 00:19:03;;;;;;;5.43;2.65;;;17.40;56.30;;;;;;4145290;28;20137;-58
2021/04/24 00:21:06;;;;;;;4.97;2.35;;;17.50;56.50;;;;;;4144594;28;20357;-60
2021/04/24 00:23:08;;;;;;;5.05;2.95;;;17.50;56.50;;;;;;4145909;28;20491;-57
2021/04/24 00:25:12;;;;;;;4.40;2.20;;;17.50;56.60;;;;;;4144451;28;20040;-56
2021/04/24 00:27:14;;;;;;;7.05;2.88;;;17.50;56.70;;;;;;4140519;28;20046;-54
2021/04/24 00:29:16;;;;;;;3.25;2.40;;;17.50;56.30;;;;;;4143366;28;20490;-54
2021/04/24 00:31:18;;;;;;;4.13;2.80;;;17.50;56.00;;;;;;4131723;28;20030;-55
2021/04/24 00:33:20;;;;;;;9.02;3.28;;;17.50;55.60;;;;;;4129638;28;20045;-54
2021/04/24 00:35:23;;;;;;;4.60;2.60;;;17.50;55.50;;;;;;4131796;28;20018;-54
2021/04/24 00:37:25;;;;;;;4.43;2.80;;;17.50;55.40;;;;;;4133106;28;20033;-54
2021/04/24 00:39:27;;;;;;;3.85;2.65;;;17.50;55.20;;;;;;4116646;28;20042;-49
2021/04/24 00:41:29;;;;;;;4.22;2.65;;;17.50;55.20;;;;;;4132445;28;20444;-48
2021/04/24 00:43:31;;;;;;;4.70;3.15;;;17.40;55.70;;;;;;4131850;28;20131;-50
2021/04/24 00:45:33;;;;;;;13.45;2.97;;;17.40;56.90;;;;;;4132263;28;20398;-47
2021/04/24 00:47:35;;;;;;;15.23;3.55;;;17.50;58.10;;;;;;4131214;28;20046;-54
2021/04/24 00:49:37;;;;;;;12.77;3.10;;;17.50;58.70;;;;;;4134494;28;20116;-54
2021/04/24 00:51:40;;;;;;;15.85;3.00;;;17.60;59.30;;;;;;4128034;28;20042;-53
2021/04/24 00:53:42;;;;;;;7.45;2.95;;;17.60;58.80;;;;;;4117334;28;20455;-52
2021/04/24 00:55:44;;;;;;;9.52;3.17;;;17.60;58.20;;;;;;4130159;28;20798;-53
2021/04/24 00:57:47;;;;;;;13.30;3.08;;;17.60;57.80;;;;;;4137807;28;20030;-48
2021/04/24 00:59:49;;;;;;;7.57;2.60;;;17.60;57.50;;;;;;4140573;28;20511;-51
2021/04/24 01:01:52;;;;;;;5.90;3.07;;;17.60;57.30;;;;;;4147759;28;20053;-49
2021/04/24 01:03:55;;;;;;;4.55;2.70;;;17.60;57.10;;;;;;4145057;28;20125;-50
2021/04/24 01:05:57;;;;;;;;;;;17.50;56.90;;;;;;4140765;28;20546;-49
2021/04/24 01:07:59;;;;;;;4.13;2.50;;;17.60;56.90;;;;;;4128168;28;19917;-51
2021/04/24 01:10:03;;;;;;;3.10;2.33;;;17.60;56.70;;;;;;4126439;28;20551;-53
2021/04/24 01:12:06;;;;;;;3.92;2.92;;;17.60;56.60;;;;;;4121550;28;20492;-49
2021/04/24 01:14:08;;;;;;;6.72;2.50;;;17.60;56.50;;;;;;4131951;28;20559;-53
2021/04/24 01:16:10;;;;;;;3.00;1.97;;;17.60;56.40;;;;;;4131006;28;20026;-53
2021/04/24 01:18:13;;;;;;;4.40;2.60;;;17.60;56.40;;;;;;4127737;28;20272;-53
2021/04/24 01:20:16;;;;;;;4.97;2.50;;;17.60;56.30;;;;;;4126797;28;20022;-56
2021/04/24 01:22:19;;;;;;;4.70;2.60;;;17.60;56.30;;;;;;4146226;28;20033;-51
2021/04/24 01:24:21;;;;;;;5.72;2.45;;;17.60;56.20;;;;;;4142649;28;20115;-49
2021/04/24 01:26:23;;;;;;;4.57;2.90;;;17.60;56.20;;;;;;4147317;28;20411;-48
2021/04/24 01:28:25;;;;;;;4.25;2.55;;;17.60;56.30;;;;;;4145001;28;20025;-49
2021/04/24 01:30:40;;;;;;;4.63;3.00;;;17.60;56.40;;;;;;4148083;28;20506;-50
2021/04/24 01:32:43;;;;;;;4.10;2.70;;;17.60;56.80;;;;;;4142878;28;20316;-52
2021/04/24 01:34:45;;;;;;;3.97;2.90;;;17.60;56.80;;;;;;4145159;28;20083;-51
2021/04/24 01:36:47;;;;;;;4.13;2.90;;;17.60;56.70;;;;;;4144089;28;20034;-48
2021/04/24 01:38:49;;;;;;;3.40;2.80;;;17.70;56.70;;;;;;4144544;28;20558;-49
2021/04/24 01:40:52;;;;;;;4.72;3.25;;;17.70;56.70;;;;;;4146250;28;20475;-50
2021/04/24 01:42:54;;;;;;;3.53;2.80;;;17.70;56.70;;;;;;4145688;28;20392;-48
2021/04/24 01:44:58;;;;;;;4.00;2.80;;;17.70;56.80;;;;;;4144767;28;20045;-53
2021/04/24 01:47:00;;;;;;;7.55;3.00;;;17.70;56.40;;;;;;4141315;28;20499;-53
2021/04/24 01:49:02;;;;;;;7.03;3.50;;;17.70;56.60;;;;;;4145780;28;20497;-49
2021/04/24 01:51:04;;;;;;;5.03;2.95;;;17.70;56.60;;;;;;4146570;28;20030;-47
2021/04/24 01:53:09;;;;;;;5.13;2.88;;;17.70;56.50;;;;;;4148119;28;20105;-52
2021/04/24 01:55:18;;;;;;;4.53;2.85;;;17.80;56.50;;;;;;4144575;28;20022;-51
2021/04/24 01:57:20;;;;;;;4.07;2.83;;;17.80;56.50;;;;;;4143434;28;20049;-52
2021/04/24 01:59:26;;;;;;;6.35;2.70;;;17.80;56.40;;;;;;4142980;28;20034;-51
2021/04/24 02:01:28;;;;;;;5.07;2.85;;;17.80;56.30;;;;;;4144628;28;20048;-53
2021/04/24 02:03:31;;;;;;;4.63;2.65;;;17.80;56.30;;;;;;4142006;28;20154;-52
2021/04/24 02:05:33;;;;;;;5.20;2.90;;;17.80;56.30;;;;;;4144751;28;20116;-53
2021/04/24 02:07:36;;;;;;;5.27;2.80;;;17.80;56.30;;;;;;4129569;28;20030;-50
2021/04/24 02:09:38;;;;;;;4.18;2.67;;;17.90;56.20;;;;;;4141498;28;21009;-53
2021/04/24 02:12:01;;;;;;;5.72;2.97;;;17.90;56.20;;;;;;4145616;28;20037;-50
2021/04/24 02:14:06;;;;;;;5.50;3.10;;;17.90;56.20;;;;;;4144861;28;20068;-49
2021/04/24 02:16:10;;;;;;;4.43;2.90;;;17.90;56.10;;;;;;4147661;28;20534;-51
2021/04/24 02:18:13;;;;;;;3.20;2.60;;;17.90;56.00;;;;;;4143549;28;20558;-50
2021/04/24 02:20:16;;;;;;;4.93;3.25;;;18.00;56.00;;;;;;4146383;28;20034;-54
2021/04/24 02:22:22;;;;;;;5.80;2.92;;;18.00;56.00;;;;;;4149042;28;20330;-53
2021/04/24 02:24:24;;;;;;;5.10;3.17;;;18.00;56.00;;;;;;4148092;28;20038;-53
2021/04/24 02:26:26;;;;;;;4.68;3.33;;;18.00;56.00;;;;;;4148752;28;20029;-50
2021/04/24 02:28:28;;;;;;;4.18;2.85;;;18.00;56.00;;;;;;4148871;28;20034;-50
2021/04/24 02:30:30;;;;;;;8.13;3.60;;;18.00;56.00;;;;;;4152638;28;20141;-52
2021/04/24 02:32:32;;;;;;;5.35;3.30;;;18.10;56.10;;;;;;4146922;28;20160;-53
2021/04/24 02:34:37;;;;;;;5.28;3.47;;;18.10;56.20;;;;;;4150794;28;20038;-54
2021/04/24 02:36:39;;;;;;;7.03;4.00;;;18.10;56.20;;;;;;4151912;28;20084;-51
2021/04/24 02:38:51;;;;;;;4.78;3.42;;;18.10;56.20;;;;;;4141183;28;20427;-54
2021/04/24 02:40:55;;;;;;;5.45;3.53;;;18.20;56.20;;;;;;4143436;28;20467;-49
2021/04/24 02:42:57;;;;;;;4.63;3.40;;;18.20;56.00;;;;;;4140107;28;20049;-50
2021/04/24 02:45:05;;;;;;;5.18;3.28;;;18.20;56.00;;;;;;4141460;28;20044;-50
2021/04/24 02:47:09;;;;;;;5.40;3.38;;;18.20;55.90;;;;;;4149154;28;20141;-53
2021/04/24 02:49:10;;;;;;;;;;;18.30;55.90;;;;;;4126656;28;20129;-51
2021/04/24 02:51:12;;;;;;;5.30;3.28;;;18.30;55.80;;;;;;4145772;28;19917;-48
2021/04/24 02:53:14;;;;;;;6.82;3.55;;;18.30;55.80;;;;;;4148293;28;20025;-54
2021/04/24 02:55:18;;;;;;;5.97;3.25;;;18.30;55.80;;;;;;4146531;28;20052;-53
2021/04/24 02:57:20;;;;;;;5.60;3.47;;;18.30;55.70;;;;;;4149494;28;20130;-54
2021/04/24 02:59:22;;;;;;;5.15;3.20;;;18.30;55.70;;;;;;4147932;28;20063;-48
2021/04/24 03:01:24;;;;;;;4.95;2.90;;;18.30;55.60;;;;;;4150363;28;20044;-53
2021/04/24 03:03:26;;;;;;;7.38;3.28;;;18.40;55.70;;;;;;4148269;28;20448;-54
2021/04/24 03:05:29;;;;;;;4.22;2.70;;;18.40;55.60;;;;;;4129691;28;20376;-55
2021/04/24 03:07:31;;;;;;;4.22;2.90;;;18.40;55.60;;;;;;4146101;28;20109;-53
2021/04/24 03:09:33;;;;;;;4.30;2.83;;;18.50;55.60;;;;;;4145531;28;20061;-50
2021/04/24 03:11:37;;;;;;;6.80;3.30;;;18.50;55.50;;;;;;4145579;28;20076;-52
2021/04/24 03:13:39;;;;;;;4.15;3.05;;;18.50;55.40;;;;;;4148047;28;20025;-52
2021/04/24 03:15:42;;;;;;;6.95;3.20;;;18.50;55.30;;;;;;4144720;28;20056;-49
2021/04/24 03:17:44;;;;;;;4.70;2.97;;;18.50;55.20;;;;;;4144400;28;20121;-52
2021/04/24 03:19:46;;;;;;;4.65;2.95;;;18.60;55.10;;;;;;4146576;28;20693;-52
2021/04/24 03:21:48;;;;;;;5.43;2.95;;;18.60;55.00;;;;;;4144078;28;20037;-52
2021/04/24 03:23:52;;;;;;;5.28;2.90;;;18.60;54.80;;;;;;4131062;28;20046;-51
2021/04/24 03:25:54;;;;;;;5.00;2.97;;;18.70;54.90;;;;;;4145032;28;20065;-52
2021/04/24 03:27:56;;;;;;;5.25;3.17;;;18.70;54.70;;;;;;4141810;28;20038;-48
2021/04/24 03:29:58;;;;;;;5.18;3.03;;;18.70;54.60;;;;;;4144139;28;20037;-52
2021/04/24 03:32:00;;;;;;;6.50;3.00;;;18.80;54.50;;;;;;4143527;28;20025;-50
2021/04/24 03:34:03;;;;;;;6.20;3.67;;;18.80;54.30;;;;;;4145296;28;20507;-47
2021/04/24 03:36:05;;;;;;;6.00;3.42;;;18.90;54.20;;;;;;4145530;28;20046;-49
2021/04/24 03:38:08;;;;;;;5.07;2.92;;;18.90;54.20;;;;;;4146100;28;20022;-49
2021/04/24 03:40:11;;;;;;;4.95;3.05;;;19.00;54.10;;;;;;4150910;28;20204;-47
2021/04/24 03:42:14;;;;;;;5.80;3.10;;;19.00;54.10;;;;;;4150010;28;20396;-50
2021/04/24 03:44:16;;;;;;;5.45;2.90;;;19.00;54.00;;;;;;4154184;28;20438;-50
2021/04/24 03:46:18;;;;;;;3.70;2.90;;;19.10;54.00;;;;;;4155220;28;20383;-51
2021/04/24 03:48:20;;;;;;;3.85;2.72;;;19.10;53.90;;;;;;4153382;28;20090;-50
2021/04/24 03:50:25;;;;;;;5.60;3.03;;;19.20;54.10;;;;;;4154654;28;20030;-48
2021/04/24 03:52:27;;;;;;;4.90;3.03;;;19.20;53.70;;;;;;4152420;28;20505;-52
2021/04/24 03:54:30;;;;;;;6.40;3.13;;;19.30;53.60;;;;;;4138870;28;20041;-53
2021/04/24 03:56:32;;;;;;;6.30;2.95;;;19.30;53.20;;;;;;4139277;28;20034;-51
2021/04/24 03:58:35;;;;;;;3.58;2.60;;;19.40;53.20;;;;;;4144825;28;20117;-52
2021/04/24 04:00:37;;;;;;;4.80;2.50;;;19.40;52.90;;;;;;4146386;28;20041;-51
2021/04/24 04:02:48;;;;;;;5.25;2.50;;;19.40;52.90;;;;;;4144411;28;20116;-51
2021/04/24 04:04:50;;;;;;;4.60;3.20;;;19.50;52.90;;;;;;4147989;28;20538;-49
2021/04/24 04:06:52;;;;;;;4.85;2.97;;;19.50;52.50;;;;;;4146379;28;20303;-49
2021/04/24 04:08:54;;;;;;;6.32;3.00;;;19.50;52.50;;;;;;4145622;28;20036;-51
2021/04/24 04:10:57;;;;;;;4.10;2.58;;;19.60;52.40;;;;;;4149889;28;20116;-50
2021/04/24 04:12:59;;;;;;;3.58;2.63;;;19.60;52.20;;;;;;4143620;28;20039;-54
2021/04/24 04:15:01;;;;;;;4.40;2.92;;;19.70;52.10;;;;;;4146437;28;20488;-53
2021/04/24 04:17:03;;;;;;;5.57;2.60;;;19.80;52.40;;;;;;4149594;28;20025;-50
2021/04/24 04:19:05;;;;;;;4.97;3.03;;;19.80;52.40;;;;;;4127294;28;20582;-51
2021/04/24 04:21:08;;;;;;;3.53;2.45;;;19.90;52.40;;;;;;4130713;28;20034;-55
2021/04/24 04:23:11;;;;;;;3.90;2.50;;;19.90;52.40;;;;;;4132875;28;20049;-47
2021/04/24 04:25:14;;;;;;;3.80;2.58;;;19.90;52.30;;;;;;4132102;28;20041;-49
2021/04/24 04:27:16;;;;;;;4.30;2.45;;;20.00;52.10;;;;;;4128526;28;20103;-48
2021/04/24 04:29:18;;;;;;;7.13;2.80;;;20.10;52.20;;;;;;4129572;28;20057;-51
2021/04/24 04:31:20;;;;;;;4.28;2.50;;;20.10;52.10;;;;;;4130909;28;20036;-53
2021/04/24 04:33:23;;;;;;;5.90;2.85;;;20.20;52.00;;;;;;4132907;28;20057;-51
2021/04/24 04:35:25;;;;;;;4.78;2.55;;;20.20;51.90;;;;;;4130669;28;20112;-51
2021/04/24 04:37:27;;;;;;;3.17;2.45;;;20.20;51.90;;;;;;4134684;28;20030;-51
2021/04/24 04:39:30;;;;;;;3.53;2.42;;;20.20;51.70;;;;;;4141514;28;20513;-49
2021/04/24 04:41:32;;;;;;;3.53;2.50;;;20.30;51.70;;;;;;4146762;28;20029;-50
2021/04/24 04:43:34;;;;;;;4.28;2.28;;;20.40;51.60;;;;;;4130755;28;20037;-50
2021/04/24 04:45:37;;;;;;;4.07;2.40;;;20.40;51.60;;;;;;4129120;28;20045;-49
2021/04/24 04:47:40;;;;;;;4.07;2.40;;;20.40;51.60;;;;;;4130153;28;20072;-50
2021/04/24 04:49:42;;;;;;;4.00;2.40;;;20.50;51.60;;;;;;4146944;28;20037;-50
2021/04/24 04:51:44;;;;;;;3.38;2.17;;;20.50;51.40;;;;;;4146707;28;20025;-53
2021/04/24 04:53:47;;;;;;;3.67;2.00;;;20.60;51.50;;;;;;4143486;28;20050;-51
2021/04/24 04:55:50;;;;;;;4.47;2.45;;;20.60;51.30;;;;;;4129698;28;20100;-50
2021/04/24 04:57:52;;;;;;;3.65;2.30;;;20.70;51.30;;;;;;4129599;28;20066;-49
2021/04/24 04:59:54;;;;;;;2.90;1.92;;;20.70;51.20;;;;;;4130345;28;20100;-49
2021/04/24 05:01:57;;;;;;;3.25;2.08;;;20.70;51.10;;;;;;4146956;28;20136;-53
2021/04/24 05:03:59;;;;;;;2.92;2.00;;;20.70;51.10;;;;;;4147903;28;20037;-49
2021/04/24 05:06:01;;;;;;;3.42;2.08;;;20.80;51.10;;;;;;4137671;28;20524;-51
2021/04/24 05:08:03;;;;;;;4.45;2.30;;;20.80;51.00;;;;;;4134248;28;20109;-50
2021/04/24 05:10:06;;;;;;;2.30;1.80;;;20.90;51.00;;;;;;4128763;28;20128;-47
2021/04/24 05:12:09;;;;;;;3.80;2.10;;;20.90;50.90;;;;;;4123639;28;20040;-47
2021/04/24 05:14:11;;;;;;;3.17;2.30;;;21.00;50.90;;;;;;4131520;28;20100;-49
2021/04/24 05:16:13;;;;;;;4.07;2.67;;;21.00;50.70;;;;;;4130426;28;20065;-47
2021/04/24 05:18:16;;;;;;;4.07;2.50;;;21.00;50.60;;;;;;4129127;28;20069;-50
2021/04/24 05:20:19;;;;;;;3.25;2.10;;;21.00;50.30;;;;;;4132858;28;20037;-49
2021/04/24 05:22:21;;;;;;;3.63;2.20;;;21.10;50.20;;;;;;4131103;28;20404;-52
2021/04/24 05:24:24;;;;;;;3.65;2.17;;;21.10;50.10;;;;;;4127321;28;20034;-50
2021/04/24 05:26:26;;;;;;;2.72;2.10;;;21.10;49.90;;;;;;4128135;28;20092;-49
2021/04/24 05:28:28;;;;;;;3.33;2.40;;;21.20;49.80;;;;;;4133927;28;20037;-52
2021/04/24 05:30:30;;;;;;;3.42;2.45;;;21.20;49.70;;;;;;4132914;28;20088;-54
2021/04/24 05:32:32;;;;;;;3.50;2.40;;;21.20;49.70;;;;;;4125414;28;20025;-52
2021/04/24 05:34:34;;;;;;;4.10;2.60;;;21.20;49.60;;;;;;4130281;28;20030;-54
2021/04/24 05:36:36;;;;;;;3.70;2.33;;;21.20;49.40;;;;;;4131395;28;20038;-51
2021/04/24 05:38:39;;;;;;;5.70;2.92;;;21.30;49.20;;;;;;4114354;28;20057;-51
2021/04/24 05:40:41;;;;;;;4.63;2.80;;;21.30;49.30;;;;;;4130127;28;20519;-51
2021/04/24 05:42:43;;;;;;;4.63;2.58;;;21.30;48.80;;;;;;4132156;28;20317;-50
2021/04/24 05:44:45;;;;;;;4.30;2.58;;;21.30;48.90;;;;;;4132937;28;20230;-49
2021/04/24 05:46:48;;;;;;;4.60;2.88;;;21.30;48.70;;;;;;4148388;28;20457;-51
2021/04/24 05:48:50;;;;;;;4.13;2.45;;;21.30;48.80;;;;;;4148285;28;20053;-49
2021/04/24 05:50:53;;;;;;;5.18;2.80;;;21.30;48.60;;;;;;4144777;28;20425;-50
2021/04/24 05:52:55;;;;;;;3.50;2.53;;;21.40;48.70;;;;;;4145545;28;20446;-51
2021/04/24 05:54:57;;;;;;;4.70;2.95;;;21.30;48.50;;;;;;4143743;28;20038;-52
2021/04/24 05:56:59;;;;;;;4.18;2.72;;;21.40;48.60;;;;;;4145772;28;20034;-49
2021/04/24 05:59:01;;;;;;;3.47;2.40;;;21.40;48.60;;;;;;4129294;28;20032;-51
2021/04/24 06:01:03;;;;;;;4.75;2.65;;;21.40;48.60;;;;;;4129019;28;20045;-53
2021/04/24 06:03:06;;;;;;;4.53;2.65;;;21.40;48.90;;;;;;4131290;28;20129;-49
2021/04/24 06:05:09;;;;;;;4.18;2.80;;;21.40;49.90;;;;;;4133336;28;20053;-50
2021/04/24 06:07:12;;;;;;;4.07;3.25;;;21.40;49.60;;;;;;4128294;28;20030;-47
2021/04/24 06:09:14;;;;;;;4.20;3.10;;;21.50;50.30;;;;;;4141448;28;20502;-49
2021/04/24 06:11:16;;;;;;;5.45;2.95;;;21.50;50.10;;;;;;4144545;28;20104;-51
2021/04/24 06:13:19;;;;;;;5.45;3.38;;;21.50;50.10;;;;;;4129891;28;20735;-48
2021/04/24 06:15:23;;;;;;;3.38;2.80;;;21.50;50.10;;;;;;4143671;28;20037;-49
2021/04/24 06:17:25;;;;;;;5.05;3.47;;;21.50;50.30;;;;;;4145667;28;20033;-47
2021/04/24 06:19:28;;;;;;;4.45;2.80;;;21.50;50.40;;;;;;4148335;28;20091;-48
2021/04/24 06:21:30;;;;;;;4.10;2.80;;;21.50;50.50;;;;;;4143625;28;20206;-52
2021/04/24 06:23:32;;;;;;;4.68;2.72;;;21.50;50.50;;;;;;4145239;28;20188;-48
2021/04/24 06:25:36;;;;;;;4.03;2.60;;;21.50;50.60;;;;;;4147598;28;20363;-49
2021/04/24 06:27:38;;;;;;;4.05;2.83;;;21.50;50.70;;;;;;4144130;28;20094;-49
2021/04/24 06:29:40;;;;;;;3.60;2.95;;;21.50;50.90;;;;;;4146311;28;20025;-49
2021/04/24 06:31:42;;;;;;;4.45;3.13;;;21.60;51.10;;;;;;4145147;28;20048;-49
2021/04/24 06:33:45;;;;;;;7.07;2.92;;;21.60;51.30;;;;;;4142409;28;20122;-48
2021/04/24 06:35:47;;;;;;;4.88;3.17;;;21.60;51.60;;;;;;4139820;28;20064;-52
2021/04/24 06:37:50;;;;;;;5.75;3.05;;;21.60;52.20;;;;;;4146792;28;20712;-48
2021/04/24 06:39:52;;;;;;;4.20;3.40;;;21.60;52.40;;;;;;4139241;28;20040;-50
2021/04/24 06:41:54;;;;;;;4.93;3.30;;;21.60;52.50;;;;;;4143117;28;20030;-52
2021/04/24 06:43:56;;;;;;;4.10;3.13;;;21.60;52.70;;;;;;4127385;28;20132;-52
2021/04/24 06:45:58;;;;;;;6.13;3.70;;;21.60;52.90;;;;;;4144485;28;20873;-49
2021/04/24 06:48:01;;;;;;;5.43;3.83;;;21.60;53.10;;;;;;4142816;28;20581;-48
2021/04/24 06:50:06;;;;;;;5.13;3.20;;;21.60;53.30;;;;;;4145134;28;20022;-46
2021/04/24 06:52:08;;;;;;;5.03;3.55;;;21.60;53.20;;;;;;4145128;28;20029;-51
2021/04/24 06:54:11;;;;;;;5.78;3.75;;;21.60;53.50;;;;;;4142486;28;20400;-51
2021/04/24 06:56:13;;;;;;;6.78;3.20;;;21.60;53.50;;;;;;4147465;28;20028;-47
2021/04/24 06:58:15;;;;;;;5.25;3.55;;;21.60;53.60;;;;;;4125020;28;20356;-53
2021/04/24 07:00:17;;;;;;;4.10;2.75;;;21.60;53.60;;;;;;4126886;28;20042;-52
2021/04/24 07:02:20;;;;;;;4.88;3.10;;;21.60;53.70;;;;;;4127139;28;20049;-49
2021/04/24 07:04:22;;;;;;;4.68;3.13;;;21.60;53.90;;;;;;4131931;28;20061;-53
2021/04/24 07:06:25;;;;;;;4.00;2.90;;;21.60;53.80;;;;;;4124212;28;20393;-49
2021/04/24 07:08:27;;;;;;;5.32;3.10;;;21.60;53.80;;;;;;4112313;28;20629;-55
2021/04/24 07:10:32;;;;;;;5.00;3.30;;;21.60;53.90;;;;;;4148853;28;20029;-54
2021/04/24 07:12:35;;;;;;;5.97;3.33;;;21.60;53.90;;;;;;4134441;28;20046;-55
2021/04/24 07:14:37;;;;;;;6.13;3.67;;;21.60;54.10;;;;;;4131713;28;20125;-63
2021/04/24 07:16:39;;;;;;;4.97;3.20;;;21.60;54.20;;;;;;4131162;28;20543;-62
2021/04/24 07:18:43;;;;;;;4.82;2.70;;;21.60;54.30;;;;;;4130229;28;20419;-62
2021/04/24 07:20:45;;;;;;;4.25;2.70;;;21.60;54.40;;;;;;4130436;28;20603;-61
2021/04/24 07:22:48;;;;;;;5.45;3.25;;;21.60;54.90;;;;;;4133155;28;20442;-62
2021/04/24 07:24:50;;;;;;;4.75;3.00;;;21.60;54.30;;;;;;4143355;28;20365;-61
2021/04/24 07:26:52;;;;;;;4.45;2.92;;;21.60;54.30;;;;;;4142819;28;20108;-62
2021/04/24 07:28:54;;;;;;;4.70;2.67;;;21.60;54.20;;;;;;4134481;28;20049;-62
2021/04/24 07:30:56;;;;;;;4.82;2.90;;;21.60;54.30;;;;;;4131483;28;20037;-63
2021/04/24 07:32:58;;;;;;;4.50;2.67;;;21.60;54.50;;;;;;4137488;28;20869;-62
2021/04/24 07:35:01;;;;;;;5.57;2.70;;;21.60;54.30;;;;;;4146903;28;20576;-62
2021/04/24 07:37:04;;;;;;;5.55;2.97;;;21.60;54.30;;;;;;4131751;28;20030;-62
2021/04/24 07:39:06;;;;;;;4.65;2.83;;;21.50;54.20;;;;;;4139740;28;20072;-62
2021/04/24 07:41:08;;;;;;;4.07;2.70;;;21.50;54.20;;;;;;4134093;28;20439;-62
2021/04/24 07:43:11;;;;;;;5.60;2.70;;;21.50;54.30;;;;;;4144654;28;20053;-61
2021/04/24 07:45:14;;;;;;;3.30;2.50;;;21.50;54.20;;;;;;4137936;28;20530;-61
2021/04/24 07:47:16;;;;;;;3.70;2.40;;;21.50;54.20;;;;;;4130428;28;20091;-62
2021/04/24 07:49:18;;;;;;;4.20;2.47;;;21.50;54.10;;;;;;4115496;28;20761;-61
2021/04/24 07:51:21;;;;;;;3.85;2.65;;;21.50;54.10;;;;;;4129897;28;20038;-62
2021/04/24 07:53:23;;;;;;;4.15;2.72;;;21.50;54.00;;;;;;4130108;28;20050;-62
2021/04/24 07:55:26;;;;;;;3.92;2.60;;;21.50;54.00;;;;;;4126239;28;20033;-62
2021/04/24 07:57:29;;;;;;;4.68;2.45;;;21.50;54.00;;;;;;4125220;28;21841;-62
2021/04/24 07:59:31;;;;;;;4.70;2.78;;;21.50;54.00;;;;;;4128480;28;20026;-62
2021/04/24 08:01:33;;;;;;;3.92;2.60;;;21.50;54.00;;;;;;4127751;28;20046;-62
2021/04/24 08:03:36;;;;;;;4.60;2.78;;;21.50;54.00;;;;;;4139361;28;20077;-61
2021/04/24 08:05:38;;;;;;;4.50;2.85;;;21.40;53.90;;;;;;4142497;28;20064;-61
2021/04/24 08:07:41;;;;;;;3.78;2.50;;;21.40;54.00;;;;;;4149737;28;20087;-61
2021/04/24 08:09:45;;;;;;;5.60;3.17;;;21.40;53.90;;;;;;4143900;28;20115;-62
2021/04/24 08:11:47;;;;;;;3.85;2.70;;;21.40;54.00;;;;;;4147876;28;20542;-61
2021/04/24 08:13:50;;;;;;;4.72;3.63;;;21.40;54.10;;;;;;4149324;28;20073;-63
2021/04/24 08:15:52;;;;;;;5.00;3.07;;;21.40;54.40;;;;;;4149936;28;20052;-62
2021/04/24 08:17:54;;;;;;;3.25;2.70;;;21.40;54.40;;;;;;4143270;28;20274;-62
2021/04/24 08:19:56;;;;;;;5.75;2.70;;;21.40;54.40;;;;;;4155365;28;20017;-62
2021/04/24 08:21:59;;;;;;;5.65;2.72;;;21.40;54.40;;;;;;4151503;28;20033;-63
2021/04/24 08:24:01;;;;;;;5.13;2.58;;;21.40;54.40;;;;;;4154519;28;20033;-62
2021/04/24 08:26:04;;;;;;;4.10;2.65;;;21.40;54.70;;;;;;4157849;28;20136;-62
2021/04/24 08:28:06;;;;;;;4.40;2.60;;;21.40;54.50;;;;;;4134469;28;20045;-61
2021/04/24 08:30:10;;;;;;;4.32;2.83;;;21.40;54.50;;;;;;4152267;28;20052;-61
2021/04/24 08:32:13;;;;;;;4.00;2.50;;;21.40;54.50;;;;;;4148675;28;20048;-62
2021/04/24 08:34:17;;;;;;;4.13;2.70;;;21.30;54.50;;;;;;4129336;28;20129;-62
2021/04/24 08:36:19;;;;;;;4.93;2.80;;;21.40;54.60;;;;;;4131169;28;20045;-61
2021/04/24 08:38:21;;;;;;;6.70;3.08;;;21.30;55.20;;;;;;4109747;28;20207;-63
2021/04/24 08:40:23;;;;;;;5.03;3.10;;;21.30;54.60;;;;;;4133363;28;20038;-62
2021/04/24 08:42:25;;;;;;;4.57;3.00;;;21.30;54.60;;;;;;4129484;28;20247;-61
2021/04/24 08:44:28;;;;;;;4.70;3.05;;;21.30;54.70;;;;;;4125957;28;20022;-61
2021/04/24 08:46:30;;;;;;;5.25;3.13;;;21.30;54.70;;;;;;4125826;28;20542;-62
2021/04/24 08:48:33;;;;;;;4.63;3.10;;;21.30;54.70;;;;;;4129751;28;20381;-61
2021/04/24 08:50:35;;;;;;;;;;;21.30;54.70;;;;;;4129177;28;20041;-61
2021/04/24 08:52:39;;;;;;;4.70;3.35;;;21.30;54.70;;;;;;4126936;28;19925;-58
2021/04/24 08:54:41;;;;;;;8.55;4.18;;;21.30;54.80;;;;;;4129762;28;20532;-58
2021/04/24 08:56:44;;;;;;;8.07;4.00;;;21.30;55.40;;;;;;4130910;28;20460;-57
2021/04/24 08:58:46;;;;;;;8.27;3.67;;;21.30;55.70;;;;;;4133411;28;20116;-59
2021/04/24 09:00:51;;;;;;;8.02;3.60;;;21.30;55.90;;;;;;4131405;28;20695;-59
2021/04/24 09:02:54;;;;;;;7.00;3.15;;;21.30;56.10;;;;;;4126945;28;20435;-57
2021/04/24 09:04:56;;;;;;;6.43;3.38;;;21.30;56.30;;;;;;4131391;28;20021;-58
2021/04/24 09:06:58;;;;;;;9.45;3.28;;;21.30;56.40;;;;;;4128796;28;20504;-58
2021/04/24 09:09:08;;;;;;;7.72;3.35;;;21.30;56.60;;;;;;4129178;28;20030;-58
2021/04/24 09:11:14;;;;;;;6.80;3.13;;;21.40;56.60;;;;;;4130170;28;20032;-58
2021/04/24 09:13:21;;;;;;;5.18;2.90;;;21.40;56.70;;;;;;4130575;28;20030;-55
2021/04/24 09:15:25;;;;;;;10.55;3.30;;;21.40;56.70;;;;;;4122303;28;20052;-56
2021/04/24 09:17:49;;;;;;;6.90;3.03;;;21.40;56.70;;;;;;4127265;28;20372;-60
2021/04/24 09:19:51;;;;;;;8.43;2.90;;;21.40;56.80;;;;;;4130274;28;20175;-60
2021/04/24 09:22:28;;;;;;;8.32;3.03;;;21.40;57.00;;;;;;4130872;28;20030;-55
2021/04/24 09:24:40;;;;;;;7.72;3.20;;;21.40;57.00;;;;;;4089487;28;20062;-62
2021/04/24 09:26:47;;;;;;;7.63;3.00;;;21.50;57.20;;;;;;4120113;28;20790;-60
2021/04/24 09:28:58;;;;;;;7.30;3.10;;;21.50;57.10;;;;;;4128386;28;20022;-62
2021/04/24 09:31:01;;;;;;;9.65;3.28;;;21.50;57.10;;;;;;4124966;28;20570;-61
2021/04/24 09:33:08;;;;;;;7.85;3.38;;;21.50;57.10;;;;;;4122665;28;20509;-60
2021/04/24 09:35:14;;;;;;;7.30;3.08;;;21.50;57.10;;;;;;4130273;28;20042;-60
2021/04/24 09:37:21;;;;;;;9.30;3.00;;;21.50;57.10;;;;;;4123191;28;20030;-59
2021/04/24 09:39:28;;;;;;;8.70;3.20;;;21.50;57.10;;;;;;4132183;28;20045;-60
2021/04/24 09:41:34;;;;;;;6.30;2.90;;;21.50;57.10;;;;;;4105110;28;20102;-59
2021/04/24 09:43:55;;;;;;;8.40;2.58;;;21.50;57.30;;;;;;4143510;28;20074;-60
2021/04/24 09:45:57;;;;;;;8.02;3.00;;;21.60;57.20;;;;;;4129554;28;20038;-58
2021/04/24 09:48:00;;;;;;;9.40;3.10;;;21.50;57.20;;;;;;4136154;28;20038;-60
2021/04/24 09:50:11;;;;;;;;;;;21.60;57.30;;;;;;4142748;28;20440;-61
2021/04/24 09:52:21;;;;;;;5.25;3.22;;;21.60;57.40;;;;;;4140536;28;19921;-61
2021/04/24 09:54:35;;;;;;;7.20;3.03;;;21.50;57.40;;;;;;4145611;28;20053;-58
2021/04/24 09:56:38;;;;;;;7.72;3.00;;;21.50;57.40;;;;;;4136358;28;20123;-59
2021/04/24 09:58:42;;;;;;;7.47;3.20;;;21.50;57.50;;;;;;4143238;28;20499;-61
2021/04/24 10:00:44;;;;;;;8.00;3.45;;;21.60;57.50;;;;;;4140098;28;20100;-55
2021/04/24 10:02:46;;;;;;;36.33;4.57;;;21.60;57.60;;;;;;4139899;28;20195;-59
2021/04/24 10:05:15;;;;;;;33.78;6.45;;;21.60;57.60;;;;;;4141963;28;20025;-61
2021/04/24 10:07:37;;;;;;;36.97;4.78;;;21.60;57.60;;;;;;4141311;28;20038;-59
2021/04/24 10:09:44;;;;;;;22.55;4.40;;;21.60;57.80;;;;;;4140286;28;20029;-60
2021/04/24 10:11:50;;;;;;;13.20;3.75;;;21.60;57.80;;;;;;4136141;28;20065;-60
2021/04/24 10:13:53;;;;;;;14.68;4.07;;;21.60;57.80;;;;;;4123909;28;20543;-62
2021/04/24 10:15:55;;;;;;;9.88;3.42;;;21.60;57.80;;;;;;4126119;28;20034;-61
2021/04/24 10:17:57;;;;;;;10.63;3.70;;;21.60;57.90;;;;;;4125662;28;20144;-60
2021/04/24 10:20:00;;;;;;;8.90;3.70;;;21.60;57.80;;;;;;4123657;28;20743;-61
2021/04/24 10:22:08;;;;;;;10.43;3.95;;;21.60;57.80;;;;;;4123031;28;20034;-60
2021/04/24 10:24:12;;;;;;;10.70;3.85;;;21.60;57.80;;;;;;4123960;28;20334;-60
2021/04/24 10:26:14;;;;;;;11.20;3.88;;;21.60;58.50;;;;;;4123798;28;20022;-61
2021/04/24 10:28:17;;;;;;;9.77;3.33;;;21.60;58.00;;;;;;4122818;28;20042;-63
2021/04/24 10:30:20;;;;;;;12.18;3.50;;;21.60;57.90;;;;;;4123417;28;20065;-59
2021/04/24 10:32:23;;;;;;;9.88;3.60;;;21.60;58.10;;;;;;4121887;28;20030;-61
2021/04/24 10:34:25;;;;;;;;;;;21.60;57.90;;;;;;4122990;28;20063;-62
2021/04/24 10:36:28;;;;;;;10.15;3.75;;;21.60;57.80;;;;;;4122757;28;20280;-60
2021/04/24 10:38:31;;;;;;;7.90;3.40;;;21.60;57.90;;;;;;4122847;28;20041;-59
2021/04/24 10:40:33;;;;;;;7.45;3.47;;;21.60;57.80;;;;;;4123174;28;20502;-61
2021/04/24 10:42:36;;;;;;;8.63;3.10;;;21.60;57.80;;;;;;4135702;28;20558;-58